Time;durP1;ratioP1;P1;durP2;ratioP2;P2;SDS_P1;SDS_P2;PMS_P1;PMS_P2;Temp;Humidity;BMP_temperature;BMP_pressure;BME280_temperature;BME280_humidity;BME280_pressure;Samples;Min_cycle;Max_cycle;Signal;HPM_P1;HPM_P2
2021/06/04 00:01:19;;;;;;;10.07;7.18;;;20.90;92.20;;;19.72;91.27;100932.50;5023281;28;20053;-75
2021/06/04 00:03:55;;;;;;;14.98;7.05;;;20.90;92.20;;;19.73;91.38;100927.81;5027509;28;20105;-76
2021/06/04 00:06:33;;;;;;;9.90;7.35;;;20.90;92.30;;;19.71;91.25;100930.75;5028174;28;20041;-76
2021/06/04 00:09:14;;;;;;;12.20;7.63;;;20.90;92.40;;;19.70;91.43;100934.63;5028315;28;20049;-76
2021/06/04 00:11:55;;;;;;;10.90;7.45;;;20.90;92.50;;;19.70;91.21;100928.22;5027792;28;20053;-75
2021/06/04 00:14:32;;;;;;;11.77;7.38;;;20.90;92.60;;;19.68;91.38;100922.09;5028450;28;20128;-76
2021/06/04 00:17:15;;;;;;;10.05;6.82;;;20.80;92.40;;;19.67;91.47;100929.56;5028159;28;20049;-76
2021/06/04 00:19:51;;;;;;;11.27;7.95;;;20.80;92.40;;;19.66;91.80;100927.03;5027841;28;20045;-75
2021/06/04 00:22:32;;;;;;;11.63;8.20;;;20.80;92.40;;;19.65;91.78;100926.19;5027762;28;20503;-76
2021/06/04 00:25:18;;;;;;;11.75;8.13;;;20.80;92.50;;;19.65;91.76;100919.84;5028083;28;20513;-76
2021/06/04 00:27:56;;;;;;;10.98;8.68;;;20.80;92.60;;;19.62;91.82;100914.78;5028071;28;20052;-76
2021/06/04 00:30:32;;;;;;;11.63;7.82;;;20.80;92.70;;;19.60;92.06;100914.16;5027690;28;20115;-76
2021/06/04 00:33:31;;;;;;;13.57;8.50;;;20.70;92.70;;;19.61;91.75;100919.47;5026169;22;20058;-78
2021/06/04 00:36:08;;;;;;;16.25;9.43;;;20.70;92.80;;;19.60;91.96;100916.94;5010484;28;20088;-78
2021/06/04 00:38:44;;;;;;;11.63;8.32;;;20.70;92.80;;;19.59;91.92;100916.09;5011849;28;20084;-78
2021/06/04 00:41:31;;;;;;;13.88;9.07;;;20.70;92.80;;;19.59;91.87;100912.47;5009915;28;20148;-78
2021/06/04 00:44:11;;;;;;;13.50;10.00;;;20.70;93.00;;;19.59;92.06;100915.22;5010342;28;20053;-78
2021/06/04 00:46:52;;;;;;;14.73;10.27;;;20.70;93.00;;;19.59;92.03;100912.47;5010252;28;20077;-78
2021/06/04 00:49:32;;;;;;;12.32;10.00;;;20.70;93.20;;;19.57;92.06;100918.22;5010102;28;20049;-78
2021/06/04 00:52:16;;;;;;;14.05;10.25;;;20.70;93.20;;;19.56;92.29;100911.03;5010080;28;20080;-78
2021/06/04 00:54:57;;;;;;;13.95;10.70;;;20.60;93.20;;;19.54;92.48;100914.03;5010131;28;20060;-78
2021/06/04 00:57:35;;;;;;;14.25;9.80;;;20.60;93.30;;;19.53;92.48;100904.06;5011574;28;20046;-78
2021/06/04 01:00:22;;;;;;;13.75;10.82;;;20.60;93.40;;;19.53;92.43;100900.44;5009930;28;20038;-78
2021/06/04 01:03:01;;;;;;;14.15;10.43;;;20.60;93.40;;;19.52;92.29;100904.28;5009889;28;20054;-78
2021/06/04 01:05:53;;;;;;;14.35;10.73;;;20.60;93.50;;;19.49;92.51;100905.59;5009908;28;20053;-78
2021/06/04 01:09:01;;;;;;;14.77;10.75;;;20.60;93.40;;;19.49;92.18;100904.75;5009842;28;20104;-78
2021/06/04 01:11:55;;;;;;;13.90;10.70;;;20.60;93.50;;;19.46;92.54;100900.56;5009427;28;20054;-78
2021/06/04 01:14:42;;;;;;;13.85;10.43;;;20.60;93.60;;;19.45;92.53;100896.09;5009739;28;20140;-78
2021/06/04 01:17:30;;;;;;;15.45;10.70;;;20.60;93.60;;;19.45;92.46;100898.03;5011097;28;20038;-78
2021/06/04 01:20:15;;;;;;;14.75;11.07;;;20.60;93.60;;;19.44;92.36;100899.94;5010720;28;20042;-78
2021/06/04 01:23:23;;;;;;;13.70;10.25;;;20.50;93.70;;;19.43;92.45;100902.94;5009622;28;20045;-78
2021/06/04 01:26:10;;;;;;;16.40;11.52;;;20.50;93.70;;;19.41;92.51;100911.44;5009527;28;20054;-78
2021/06/04 01:28:52;;;;;;;15.27;12.38;;;20.50;93.70;;;19.40;92.97;100897.88;5009553;28;20061;-78
2021/06/04 01:31:40;;;;;;;16.50;12.63;;;20.50;93.70;;;19.40;92.60;100911.66;5009003;28;20046;-78
2021/06/04 01:34:21;;;;;;;16.17;12.75;;;20.50;93.90;;;19.39;92.64;100916.34;5026003;28;20050;-78
2021/06/04 01:37:06;;;;;;;15.15;12.77;;;20.50;93.90;;;19.40;92.82;100911.66;5010855;28;20038;-78
2021/06/04 01:39:58;;;;;;;15.93;13.98;;;20.50;93.90;;;19.40;92.69;100911.66;5008931;28;20058;-78
2021/06/04 01:42:45;;;;;;;15.27;12.63;;;20.50;94.00;;;19.38;92.75;100914.69;5009261;28;20042;-78
2021/06/04 01:45:30;;;;;;;15.00;11.93;;;20.50;94.10;;;19.34;92.95;100914.31;5010434;28;20072;-78
2021/06/04 01:48:15;;;;;;;15.90;12.15;;;20.50;94.10;;;19.34;92.93;100914.31;5009215;28;20053;-78
2021/06/04 01:51:06;;;;;;;19.15;13.18;;;20.50;94.10;;;19.34;92.77;100919.84;5008779;28;20046;-78
2021/06/04 01:53:52;;;;;;;19.13;12.55;;;20.50;94.10;;;19.32;93.09;100913.72;5010467;28;20410;-78
2021/06/04 01:56:38;;;;;;;15.63;13.07;;;20.50;94.20;;;19.32;93.05;100910.06;5008839;28;20073;-78
2021/06/04 01:59:26;;;;;;;15.70;13.13;;;20.40;94.10;;;19.31;92.96;100919.44;5008972;28;20057;-78
2021/06/04 02:02:14;;;;;;;18.60;13.45;;;20.40;94.20;;;19.31;93.07;100913.94;5008795;28;20053;-78
2021/06/04 02:04:56;;;;;;;16.98;13.57;;;20.40;94.30;;;19.30;92.94;100912.22;5016461;28;20045;-78
2021/06/04 02:07:33;;;;;;;21.00;14.25;;;20.40;94.40;;;19.30;93.26;100918.59;5028530;28;20059;-78
2021/06/04 02:10:13;;;;;;;17.98;14.18;;;20.40;94.40;;;19.29;93.25;100922.44;5028514;28;20107;-78
2021/06/04 02:12:53;;;;;;;18.63;13.90;;;20.40;94.50;;;19.29;93.05;100918.84;5028420;28;20053;-78
2021/06/04 02:15:50;;;;;;;15.05;13.00;;;20.40;94.50;;;19.28;93.28;100914.38;5028618;28;20136;-78
2021/06/04 02:18:44;;;;;;;21.25;13.88;;;20.40;94.50;;;19.26;93.21;100919.31;5028409;28;20057;-78
2021/06/04 02:21:38;;;;;;;17.98;13.68;;;20.40;94.60;;;19.26;93.22;100916.53;5027800;28;20460;-78
2021/06/04 02:24:26;;;;;;;17.80;14.00;;;20.40;94.70;;;19.23;93.48;100906.81;5028087;28;20045;-78
2021/06/04 02:27:12;;;;;;;16.77;13.90;;;20.30;94.60;;;19.25;93.12;100914.88;5029579;28;20045;-78
2021/06/04 02:30:00;;;;;;;17.80;14.02;;;20.30;94.60;;;19.23;93.46;100914.22;5029180;28;20119;-78
2021/06/04 02:32:51;;;;;;;17.02;13.38;;;20.30;94.60;;;19.21;93.54;100914.50;5027807;28;20049;-78
2021/06/04 02:35:35;;;;;;;18.70;13.82;;;20.30;94.70;;;19.21;93.51;100914.50;5029440;28;20049;-78
2021/06/04 02:38:24;;;;;;;16.40;14.38;;;20.30;94.80;;;19.21;93.62;100913.63;5029257;28;20038;-78
2021/06/04 02:41:08;;;;;;;17.98;13.38;;;20.30;94.80;;;19.19;93.64;100911.13;5027593;28;20059;-78
2021/06/04 02:43:52;;;;;;;17.73;13.23;;;20.30;94.80;;;19.17;93.69;100912.41;5027801;28;20057;-78
2021/06/04 02:46:35;;;;;;;15.38;12.57;;;20.30;94.80;;;19.18;93.70;100908.59;5029276;28;20117;-78
2021/06/04 02:49:15;;;;;;;17.92;13.25;;;20.30;94.90;;;19.16;93.94;100911.56;5027851;28;20622;-78
2021/06/04 02:52:09;;;;;;;19.92;13.82;;;20.30;94.90;;;19.16;94.03;100919.84;5027523;28;20053;-78
2021/06/04 02:54:53;;;;;;;19.80;13.80;;;20.30;94.90;;;19.16;93.98;100919.00;5027520;28;20053;-78
2021/06/04 02:57:35;;;;;;;18.83;14.98;;;20.30;95.00;;;19.14;94.00;100922.84;5026985;28;20057;-78
2021/06/04 03:00:25;;;;;;;17.00;13.60;;;20.30;95.10;;;19.13;94.27;100932.19;5027328;28;20460;-78
2021/06/04 03:03:04;;;;;;;18.30;13.82;;;20.30;95.10;;;19.13;94.11;100931.34;5027222;28;20549;-78
2021/06/04 03:05:46;;;;;;;20.27;14.50;;;20.30;95.10;;;19.12;93.86;100938.78;5027603;28;20140;-78
2021/06/04 03:08:26;;;;;;;19.65;15.38;;;20.20;95.10;;;19.11;94.17;100937.13;5027497;28;20056;-78
2021/06/04 03:11:08;;;;;;;19.73;14.50;;;20.20;95.10;;;19.12;94.03;100929.66;5026979;28;20060;-78
2021/06/04 03:13:44;;;;;;;18.05;14.38;;;20.20;95.10;;;19.11;94.05;100937.13;5028768;28;20040;-78
2021/06/04 03:16:27;;;;;;;19.73;15.27;;;20.20;95.20;;;19.12;94.13;100938.78;5027379;28;20064;-78
2021/06/04 03:19:14;;;;;;;19.33;14.43;;;20.20;95.30;;;19.11;94.11;100941.75;5027405;28;20073;-78
2021/06/04 03:21:56;;;;;;;20.23;14.80;;;20.20;95.30;;;19.09;94.33;100939.22;5026953;28;20049;-78
2021/06/04 03:24:32;;;;;;;;;;;20.20;95.30;;;19.10;94.34;100949.22;5029147;28;20071;-78
2021/06/04 03:27:14;;;;;;;21.35;15.68;;;20.20;95.40;;;19.09;94.70;100947.50;5009658;28;19925;-78
2021/06/04 03:29:56;;;;;;;18.05;14.68;;;20.20;95.50;;;19.08;94.91;100951.34;4988946;28;20096;-78
2021/06/04 03:32:29;;;;;;;19.83;15.80;;;20.20;95.50;;;19.09;94.80;100957.72;5005170;28;20077;-78
2021/06/04 03:35:02;;;;;;;20.25;16.35;;;20.20;95.50;;;19.08;94.64;100956.88;5005358;28;20242;-78
2021/06/04 03:37:46;;;;;;;20.65;16.42;;;20.20;95.60;;;19.08;94.81;100954.13;4989116;28;20100;-78
2021/06/04 03:40:29;;;;;;;21.38;15.50;;;20.20;95.70;;;19.08;94.63;100958.81;4987365;28;20054;-78
2021/06/04 03:43:11;;;;;;;19.30;15.85;;;20.20;95.70;;;19.07;94.59;100963.44;4987531;28;20054;-78
2021/06/04 03:45:49;;;;;;;21.52;16.52;;;20.20;95.70;;;19.07;94.56;100977.25;5003991;28;20050;-78
2021/06/04 03:48:33;;;;;;;21.65;15.65;;;20.20;95.70;;;19.08;94.61;100980.88;4987648;28;20077;-78
2021/06/04 03:51:16;;;;;;;21.63;15.60;;;20.20;95.80;;;19.08;94.80;100980.88;4988610;28;20050;-78
2021/06/04 03:53:56;;;;;;;19.85;15.48;;;20.20;95.80;;;19.06;94.85;100967.28;4989120;28;20046;-78
2021/06/04 03:56:34;;;;;;;20.85;15.45;;;20.20;95.70;;;19.06;94.90;100971.97;4989067;28;20107;-78
2021/06/04 03:59:12;;;;;;;21.30;16.00;;;20.20;95.90;;;19.05;94.96;100979.41;5008014;28;20394;-78
2021/06/04 04:01:57;;;;;;;20.90;16.02;;;20.10;95.90;;;19.05;95.21;100973.88;5008344;28;20115;-78
2021/06/04 04:04:35;;;;;;;21.33;16.20;;;20.10;96.00;;;19.05;95.57;100975.81;5008484;28;20038;-78
2021/06/04 04:07:12;;;;;;;21.80;17.10;;;20.20;96.10;;;19.07;95.61;100974.50;5009058;28;20042;-78
2021/06/04 04:10:01;;;;;;;18.63;16.00;;;20.20;96.20;;;19.06;95.50;100972.81;5012074;28;20498;-78
2021/06/04 04:12:36;;;;;;;21.40;16.05;;;20.20;96.30;;;19.06;95.89;100972.81;5012248;28;20057;-78
2021/06/04 04:15:18;;;;;;;19.95;16.20;;;20.20;96.20;;;19.07;95.86;100974.50;5012329;28;20518;-78
2021/06/04 04:17:58;;;;;;;20.52;16.13;;;20.20;96.20;;;19.07;95.81;100977.25;5012384;28;20049;-78
2021/06/04 04:20:40;;;;;;;22.00;16.38;;;20.20;96.30;;;19.08;95.79;100981.69;5011826;28;20113;-78
2021/06/04 04:23:22;;;;;;;23.60;17.30;;;20.20;96.30;;;19.08;95.85;100981.69;5012079;28;20045;-78
2021/06/04 04:26:02;;;;;;;21.48;15.98;;;20.30;96.50;;;19.08;96.24;100981.69;5012274;28;20045;-78
2021/06/04 04:28:44;;;;;;;21.23;16.20;;;20.20;96.20;;;19.07;96.53;100968.97;5012276;28;20048;-78
2021/06/04 04:31:24;;;;;;;;;;;20.30;96.40;;;19.09;96.50;100971.50;5012042;28;20042;-78
2021/06/04 04:34:07;;;;;;;21.05;16.33;;;20.30;96.40;;;19.09;96.70;100983.38;5012125;28;19932;-78
2021/06/04 04:36:49;;;;;;;21.10;16.00;;;20.30;96.40;;;19.10;97.09;100973.19;5012176;28;20407;-78
2021/06/04 04:39:31;;;;;;;20.27;16.13;;;20.30;96.50;;;19.11;97.18;100977.63;5010524;28;20058;-78
2021/06/04 04:42:13;;;;;;;23.13;17.40;;;20.40;96.50;;;19.12;97.49;100982.94;5011757;28;20042;-78
2021/06/04 04:44:50;;;;;;;20.88;16.63;;;20.40;96.50;;;19.16;97.47;100982.47;5011705;28;20034;-78
2021/06/04 04:47:27;;;;;;;23.98;16.58;;;20.40;96.40;;;19.18;97.62;100986.69;5011633;28;20049;-78
2021/06/04 04:50:04;;;;;;;22.08;16.38;;;20.50;96.60;;;19.20;97.67;100987.28;5009843;28;20112;-78
2021/06/04 04:52:36;;;;;;;21.08;16.33;;;20.50;96.50;;;19.23;98.10;100988.75;5011570;28;20046;-78
2021/06/04 04:55:15;;;;;;;21.10;16.83;;;20.50;96.50;;;19.24;98.18;100984.91;5011680;28;20042;-78
2021/06/04 04:58:06;;;;;;;23.10;16.08;;;20.50;96.30;;;19.26;98.00;100991.88;5011500;28;20092;-78
2021/06/04 05:00:39;;;;;;;21.52;16.15;;;20.60;96.40;;;19.27;98.20;100987.22;5011499;28;20050;-78
2021/06/04 05:03:17;;;;;;;20.48;16.48;;;20.60;96.30;;;19.28;98.05;100986.13;5009870;28;20050;-78
2021/06/04 05:05:55;;;;;;;20.48;15.45;;;20.60;96.40;;;19.28;97.95;100981.44;5011395;28;20050;-78
2021/06/04 05:08:33;;;;;;;21.40;14.60;;;20.60;96.30;;;19.30;98.07;100984.00;5011439;28;20057;-78
2021/06/04 05:11:11;;;;;;;23.35;14.70;;;20.60;96.40;;;19.31;98.27;100988.44;5011108;28;20053;-78
2021/06/04 05:13:47;;;;;;;19.88;15.73;;;20.60;96.20;;;19.32;98.43;100988.22;5011313;28;20045;-78
2021/06/04 05:16:23;;;;;;;19.77;16.75;;;20.60;96.50;;;19.34;98.72;100997.13;5011098;28;20053;-78
2021/06/04 05:19:01;;;;;;;19.67;15.38;;;20.60;96.10;;;19.37;99.12;100990.28;5010838;28;20120;-78
2021/06/04 05:21:37;;;;;;;20.08;15.38;;;20.70;96.40;;;19.39;98.79;100993.66;5010879;28;20107;-78
2021/06/04 05:24:16;;;;;;;21.80;17.17;;;20.70;96.30;;;19.44;99.43;100995.69;5011088;28;20045;-78
2021/06/04 05:26:53;;;;;;;21.10;16.55;;;20.80;97.20;;;19.49;99.72;100993.09;5009928;28;20100;-78
2021/06/04 05:29:42;;;;;;;21.92;16.38;;;20.90;97.80;;;19.54;99.70;101005.13;5009220;28;20502;-78
2021/06/04 05:32:21;;;;;;;23.15;16.90;;;21.00;96.60;;;19.60;100.00;101008.03;5010610;28;20541;-78
2021/06/04 05:34:59;;;;;;;26.58;17.33;;;21.10;96.60;;;19.63;100.00;101004.78;5010730;28;20520;-78
2021/06/04 05:37:34;;;;;;;20.75;16.55;;;21.10;96.40;;;19.67;100.00;101014.31;5010870;28;20513;-78
2021/06/04 05:40:16;;;;;;;22.63;17.52;;;21.20;96.40;;;19.72;100.00;101009.81;5009220;28;20050;-78
2021/06/04 05:42:52;;;;;;;26.75;18.17;;;21.30;96.40;;;19.76;100.00;101010.16;5010709;28;20490;-78
2021/06/04 05:45:38;;;;;;;23.50;18.60;;;21.40;96.20;;;19.81;100.00;101013.09;5010676;28;20041;-78
2021/06/04 05:48:15;;;;;;;25.35;18.70;;;21.40;95.30;;;19.84;100.00;101015.41;5010657;28;20514;-78
2021/06/04 05:50:58;;;;;;;33.03;21.77;;;21.50;95.60;;;19.90;100.00;101016.38;5010291;28;20057;-78
2021/06/04 05:53:39;;;;;;;31.55;20.80;;;21.50;96.70;;;19.94;100.00;101002.94;5010457;28;20053;-78
2021/06/04 05:56:16;;;;;;;;;;;21.60;97.20;;;20.01;100.00;101007.28;5010878;28;20049;-78
2021/06/04 05:58:54;;;;;;;33.30;22.35;;;21.80;96.40;;;20.05;100.00;101007.66;5010428;28;19925;-78
2021/06/04 06:01:37;;;;;;;34.60;25.08;;;22.00;95.00;;;20.09;100.00;101006.94;5011370;28;20066;-78
2021/06/04 06:04:13;;;;;;;35.90;25.73;;;22.00;94.50;;;20.12;100.00;101008.38;5010206;28;20084;-78
2021/06/04 06:06:51;;;;;;;37.45;25.95;;;22.10;93.80;;;20.19;100.00;101013.81;5010244;28;20072;-78
2021/06/04 06:09:30;;;;;;;39.17;25.58;;;22.30;93.30;;;20.25;99.90;101021.16;5010003;28;20425;-78
2021/06/04 06:12:08;;;;;;;40.63;26.42;;;22.40;92.10;;;20.29;99.67;101019.59;5010147;28;20049;-78
2021/06/04 06:14:43;;;;;;;40.25;28.00;;;22.50;91.60;;;20.31;99.40;101023.84;5009985;28;20049;-78
2021/06/04 06:17:34;;;;;;;40.28;28.30;;;22.40;91.70;;;20.31;98.79;101023.84;5010142;28;20062;-78
2021/06/04 06:20:12;;;;;;;41.95;28.73;;;22.40;91.90;;;20.34;98.99;101021.69;5009812;28;20573;-78
2021/06/04 06:22:52;;;;;;;40.78;29.50;;;22.50;91.20;;;20.38;99.48;101022.88;5009877;28;20056;-78
2021/06/04 06:25:34;;;;;;;48.33;30.73;;;22.70;91.20;;;20.45;99.88;101024.47;5009908;28;20053;-78
2021/06/04 06:28:04;;;;;;;43.05;30.48;;;23.20;88.40;;;20.49;99.56;101024.81;5009837;28;20045;-78
2021/06/04 06:30:38;;;;;;;45.35;32.00;;;23.00;88.90;;;20.50;98.33;101021.81;5008726;28;20092;-78
2021/06/04 06:33:18;;;;;;;52.40;31.52;;;22.90;89.10;;;20.51;98.58;101023.50;5009820;28;20050;-78
2021/06/04 06:35:59;;;;;;;47.08;31.77;;;22.70;90.80;;;20.53;98.59;101030.72;5009681;28;20042;-78
2021/06/04 06:38:35;;;;;;;;;;;22.60;91.00;;;20.51;98.30;101033.72;5008778;28;20049;-78
2021/06/04 06:41:16;;;;;;;52.47;34.10;;;22.60;91.10;;;20.51;98.27;101042.03;5009245;28;19925;-78
2021/06/04 06:43:52;;;;;;;57.63;35.20;;;22.50;92.00;;;20.50;98.33;101032.03;5007999;28;20823;-78
2021/06/04 06:46:28;;;;;;;51.63;34.55;;;22.50;91.70;;;20.52;98.78;101035.38;5009720;28;20399;-78
2021/06/04 06:49:24;;;;;;;52.83;35.88;;;22.50;92.00;;;20.51;98.19;101028.19;5009544;28;20053;-78
2021/06/04 06:52:03;;;;;;;49.00;33.63;;;22.50;91.70;;;20.51;97.61;101030.97;5008116;28;20049;-78
2021/06/04 06:54:41;;;;;;;51.30;34.88;;;22.40;91.80;;;20.53;97.68;101036.25;5009368;28;20046;-78
2021/06/04 06:57:16;;;;;;;53.58;34.58;;;22.40;91.90;;;20.53;97.71;101041.78;5009365;28;20045;-78
2021/06/04 06:59:54;;;;;;;52.35;35.67;;;22.40;91.80;;;20.53;97.41;101053.69;5007741;28;20056;-78
2021/06/04 07:02:30;;;;;;;50.90;35.67;;;22.40;91.70;;;20.54;97.73;101054.50;5009205;28;20046;-78
2021/06/04 07:05:13;;;;;;;53.88;36.85;;;22.40;91.80;;;20.53;97.85;101050.91;5009243;28;20041;-78
2021/06/04 07:07:51;;;;;;;56.58;38.03;;;22.40;92.00;;;20.53;97.40;101059.22;5009120;28;20045;-78
2021/06/04 07:10:34;;;;;;;55.80;38.10;;;22.40;91.90;;;20.52;97.22;101057.50;5008795;28;20116;-78
2021/06/04 07:13:16;;;;;;;53.88;37.75;;;22.40;91.90;;;20.52;97.15;101057.50;5008931;28;20045;-78
2021/06/04 07:15:57;;;;;;;59.72;38.35;;;22.40;91.80;;;20.54;97.14;101060.88;5009186;28;20066;-78
2021/06/04 07:18:33;;;;;;;60.65;38.95;;;22.40;91.80;;;20.55;97.30;101054.28;5009238;28;20046;-78
2021/06/04 07:21:11;;;;;;;56.83;39.47;;;22.40;91.90;;;20.55;97.09;101054.28;5008672;28;20049;-78
2021/06/04 07:23:50;;;;;;;54.33;37.78;;;22.40;91.60;;;20.57;97.16;101052.13;5008536;28;20049;-78
2021/06/04 07:26:28;;;;;;;57.92;39.58;;;22.40;91.60;;;20.59;96.72;101055.50;5009013;28;20513;-78
2021/06/04 07:29:03;;;;;;;56.20;39.47;;;22.50;91.60;;;20.64;97.39;101058.41;5009061;28;20050;-78
2021/06/04 07:31:41;;;;;;;59.00;38.95;;;22.50;91.70;;;20.66;96.98;101059.03;5008520;28;20048;-78
2021/06/04 07:34:23;;;;;;;59.90;39.40;;;22.60;91.60;;;20.69;97.30;101055.78;5008849;28;20045;-78
2021/06/04 07:36:58;;;;;;;;;;;22.60;91.90;;;20.74;98.38;101057.00;5009412;28;20475;-78
2021/06/04 07:39:40;;;;;;;64.65;41.10;;;22.60;92.40;;;20.75;97.54;101045.66;5008554;28;19925;-78
2021/06/04 07:42:20;;;;;;;62.42;40.67;;;22.60;91.90;;;20.79;97.80;101051.56;5008357;28;20491;-78
2021/06/04 07:44:55;;;;;;;60.83;41.60;;;22.70;91.80;;;20.85;99.03;101050.63;5008827;28;20487;-78
2021/06/04 07:47:31;;;;;;;66.65;43.85;;;22.70;92.90;;;20.86;98.57;101050.38;5008791;28;20653;-78
2021/06/04 07:50:01;;;;;;;63.97;41.85;;;22.70;92.60;;;20.90;98.67;101053.50;5008422;28;20092;-78
2021/06/04 07:52:41;;;;;;;60.22;42.13;;;22.80;92.50;;;20.92;98.76;101045.78;5008491;28;20046;-78
2021/06/04 07:55:20;;;;;;;62.35;41.92;;;22.80;92.30;;;20.98;99.25;101055.06;5008632;28;20042;-78
2021/06/04 07:57:56;;;;;;;57.70;41.08;;;22.80;93.10;;;20.99;99.19;101051.22;5016534;28;20410;-78
2021/06/04 08:00:37;;;;;;;61.40;41.88;;;22.90;92.90;;;21.04;99.52;101049.41;5028079;28;20053;-78
2021/06/04 08:03:11;;;;;;;;;;;22.90;93.50;;;21.09;99.27;101052.31;5027770;28;20128;-78
2021/06/04 08:05:49;;;;;;;65.28;42.30;;;22.90;92.90;;;21.10;98.53;101047.63;5028287;28;19947;-78
2021/06/04 08:08:27;;;;;;;59.88;40.20;;;23.00;92.40;;;21.11;98.50;101051.22;5028244;28;20049;-78
2021/06/04 08:11:07;;;;;;;63.63;42.53;;;23.00;92.10;;;21.14;97.69;101043.28;5027804;28;20045;-78
2021/06/04 08:13:46;;;;;;;58.88;40.95;;;23.00;92.00;;;21.19;97.93;101042.53;5028167;28;20065;-78
2021/06/04 08:16:21;;;;;;;62.80;39.90;;;23.00;91.70;;;21.24;99.51;101043.50;5028072;28;20444;-78
2021/06/04 08:18:58;;;;;;;58.80;39.60;;;23.10;92.90;;;21.29;100.00;101037.25;5028071;28;20046;-78
2021/06/04 08:21:38;;;;;;;58.10;40.85;;;23.10;93.20;;;21.33;100.00;101041.19;5027700;28;20092;-78
2021/06/04 08:24:19;;;;;;;62.38;43.90;;;23.20;93.40;;;21.45;100.00;101036.50;5028004;28;20056;-78
2021/06/04 08:26:55;;;;;;;56.15;40.05;;;23.30;95.60;;;21.47;98.99;101041.81;5028084;28;20056;-78
2021/06/04 08:29:34;;;;;;;57.88;41.30;;;23.30;92.80;;;21.45;95.55;101036.50;5027304;28;20056;-78
2021/06/04 08:32:14;;;;;;;57.53;40.05;;;23.30;90.50;;;21.53;96.58;101042.75;5027876;28;20053;-78
2021/06/04 08:34:49;;;;;;;60.92;41.05;;;23.30;91.10;;;21.60;97.06;101032.38;5028082;28;20045;-78
2021/06/04 08:37:24;;;;;;;52.92;38.40;;;23.40;91.70;;;21.63;94.65;101031.91;5028196;28;20514;-78
2021/06/04 08:40:01;;;;;;;63.67;42.58;;;23.40;90.20;;;21.76;99.67;101028.84;5027768;28;20136;-78
2021/06/04 08:42:51;;;;;;;56.35;41.15;;;23.50;93.10;;;21.79;100.00;101031.09;5027843;28;20053;-78
2021/06/04 08:45:39;;;;;;;47.78;34.45;;;23.60;93.60;;;21.71;96.35;101037.03;5027878;28;20481;-78
2021/06/04 08:48:43;;;;;;;59.92;41.67;;;23.60;90.60;;;21.69;93.56;101050.31;5028013;28;20454;-78
2021/06/04 08:51:36;;;;;;;48.72;36.25;;;23.50;89.50;;;21.63;92.57;101045.75;5027471;28;20079;-78
2021/06/04 08:54:35;;;;;;;129.80;50.58;;;23.50;88.20;;;21.61;92.45;101043.22;5028545;28;20486;-78
2021/06/04 08:57:36;;;;;;;491.35;149.88;;;23.50;88.20;;;21.58;92.70;101043.69;5031265;28;20041;-78
2021/06/04 09:00:15;;;;;;;529.42;155.98;;;23.50;88.20;;;21.54;93.54;101050.81;5030936;28;20474;-78
2021/06/04 09:02:56;;;;;;;250.98;82.38;;;23.50;89.10;;;21.51;92.46;101043.00;5031163;28;20042;-78
2021/06/04 09:05:38;;;;;;;;;;;23.40;88.40;;;21.48;89.25;101041.56;5031605;28;20045;-78
2021/06/04 09:08:22;;;;;;;60.47;40.30;;;23.30;86.20;;;21.45;89.92;101039.28;5031163;28;19952;-78
2021/06/04 09:11:02;;;;;;;53.67;37.85;;;23.30;86.70;;;21.43;88.93;101040.56;5030706;28;20441;-78
2021/06/04 09:13:40;;;;;;;54.15;39.22;;;23.30;85.70;;;21.42;89.12;101039.75;5031325;28;20053;-78
2021/06/04 09:16:26;;;;;;;54.53;39.25;;;23.30;85.90;;;21.42;90.13;101036.16;5031142;28;20049;-78
2021/06/04 09:19:12;;;;;;;61.90;40.90;;;23.30;86.70;;;21.40;91.52;101039.16;5030980;28;20049;-79
2021/06/04 09:21:50;;;;;;;174.63;59.55;;;23.30;87.70;;;21.39;93.47;101045.75;5030610;28;20053;-78
2021/06/04 09:24:32;;;;;;;66.15;41.65;;;23.30;88.90;;;21.37;90.26;101050.69;5030753;28;20103;-78
2021/06/04 09:27:08;;;;;;;60.30;38.22;;;23.30;86.20;;;21.38;89.05;101059.84;5030780;28;20042;-78
2021/06/04 09:30:14;;;;;;;140.05;56.85;;;23.20;86.10;;;21.36;91.59;101049.03;5030463;28;20499;-78
2021/06/04 09:33:21;;;;;;;73.10;43.00;;;23.20;87.20;;;21.33;86.25;101043.97;5030381;28;20045;-78
2021/06/04 09:36:12;;;;;;;48.30;33.78;;;23.20;85.70;;;21.36;84.94;101037.97;5030539;28;20071;-78
2021/06/04 09:38:53;;;;;;;43.67;30.10;;;23.20;82.80;;;21.41;82.87;101043.59;5030575;28;20068;-78
2021/06/04 09:41:51;;;;;;;44.50;33.03;;;23.20;81.80;;;21.57;83.52;101043.94;5028744;28;20192;-78
2021/06/04 09:44:35;;;;;;;41.72;29.60;;;23.30;82.50;;;21.67;84.82;101041.41;5018319;28;20111;-78
2021/06/04 09:47:28;;;;;;;36.72;26.65;;;23.40;83.20;;;21.62;78.31;101041.28;5029007;28;20468;-78
2021/06/04 09:50:26;;;;;;;37.47;29.15;;;23.40;78.80;;;21.59;76.07;101028.78;5030069;28;20092;-78
2021/06/04 09:53:15;;;;;;;42.92;32.00;;;23.40;76.60;;;21.67;79.68;101033.09;5030300;28;20065;-78
2021/06/04 09:56:14;;;;;;;43.83;32.67;;;23.40;79.70;;;21.71;80.56;101025.97;5030267;28;20037;-78
2021/06/04 09:58:59;;;;;;;37.70;28.95;;;23.40;79.50;;;21.82;80.82;101033.41;5022957;28;20046;-78
2021/06/04 10:01:47;;;;;;;41.60;31.75;;;23.50;80.20;;;21.94;79.53;101027.78;5010256;28;20053;-78
2021/06/04 10:04:36;;;;;;;42.95;32.72;;;23.60;80.50;;;22.03;81.04;101025.47;5010224;28;20045;-78
2021/06/04 10:07:20;;;;;;;43.42;30.70;;;23.70;80.50;;;21.99;80.18;101018.72;5010248;28;20525;-78
2021/06/04 10:09:57;;;;;;;39.85;29.25;;;23.70;79.90;;;21.94;78.26;101007.56;5009902;28;20054;-78
2021/06/04 10:12:40;;;;;;;44.25;31.20;;;23.70;78.50;;;21.98;80.10;101015.13;5009965;28;20061;-78
2021/06/04 10:15:31;;;;;;;38.22;28.83;;;23.70;80.30;;;22.00;79.97;101010.16;5010070;28;20054;-78
2021/06/04 10:18:17;;;;;;;35.10;28.20;;;23.70;79.80;;;21.99;78.47;101010.41;5010068;28;20045;-78
2021/06/04 10:21:09;;;;;;;37.15;27.92;;;23.80;78.40;;;21.97;80.45;101012.59;5009564;28;20576;-78
2021/06/04 10:23:49;;;;;;;34.67;26.38;;;23.80;79.60;;;21.86;76.21;101003.25;5010003;28;20049;-78
2021/06/04 10:26:38;;;;;;;34.17;27.48;;;23.70;77.00;;;21.82;75.34;101005.69;5009918;28;20050;-78
2021/06/04 10:29:22;;;;;;;35.30;27.55;;;23.70;75.90;;;21.82;76.76;101000.16;5009920;28;20046;-78
2021/06/04 10:32:01;;;;;;;31.25;23.02;;;23.60;77.30;;;21.84;80.46;101002.66;5009549;28;20038;-78
2021/06/04 10:35:15;;;;;;;40.08;26.85;;;23.70;80.20;;;21.79;76.89;100995.09;5009836;28;20046;-78
2021/06/04 10:38:01;;;;;;;31.17;23.33;;;23.60;77.50;;;21.79;78.25;101002.56;5009784;28;20061;-78
2021/06/04 10:40:45;;;;;;;28.42;22.55;;;23.60;77.50;;;21.78;79.52;101010.03;5009335;28;20506;-78
2021/06/04 10:43:37;;;;;;;30.10;23.35;;;23.60;79.10;;;21.75;77.75;101001.38;5009578;28;20081;-78
2021/06/04 10:46:14;;;;;;;;;;;23.70;78.60;;;21.76;76.34;101006.69;5010033;28;20065;-78
2021/06/04 10:49:28;;;;;;;28.85;23.15;;;23.60;76.50;;;21.76;78.10;101003.91;5008124;28;19925;-78
2021/06/04 10:52:13;;;;;;;34.83;27.92;;;23.60;77.50;;;21.93;77.73;101005.88;5009423;28;20042;-78
2021/06/04 10:55:05;;;;;;;32.88;24.90;;;23.70;78.10;;;22.02;75.88;100999.66;5008141;28;20049;-78
2021/06/04 10:57:47;;;;;;;25.58;21.08;;;23.80;75.70;;;22.02;75.36;100990.53;5009366;28;20050;-78
2021/06/04 11:00:33;;;;;;;25.38;19.00;;;23.80;75.70;;;22.06;78.62;100981.44;5009007;28;20042;-78
2021/06/04 11:03:15;;;;;;;33.63;24.38;;;23.90;79.80;;;22.16;77.73;100989.13;5009369;28;20486;-78
2021/06/04 11:05:58;;;;;;;30.02;21.38;;;24.00;79.00;;;22.18;76.49;100989.72;5009284;28;20179;-78